Estación de Colina

Ultimos registro cada 15 minutos 63
Estación Fecha / Hora Temperatura Humedad Lluvia Velocidad Dirección Radiación Presion
63 Colina 06-05-2026 15:30 18,6 67 0 1,3 16 63 1016,8
62 Colina 06-05-2026 15:15 18,7 66 0 1,3 6 72 1016,5
61 Colina 06-05-2026 15:00 18,9 65 0 0,9 347 83 1016,5
60 Colina 06-05-2026 14:45 19,1 65 0 2,2 180 188 1016,4
59 Colina 06-05-2026 14:30 19,6 63 0 1,8 180 281 1016,7
58 Colina 06-05-2026 14:15 19,8 61 0 1,8 180 290 1016,6
57 Colina 06-05-2026 14:00 20 60 0 1,8 180 315 1016,5
56 Colina 06-05-2026 13:45 20,1 59 0 4 180 309 1016,6
55 Colina 06-05-2026 13:30 20,2 57 0 3,1 180 255 1016,8
54 Colina 06-05-2026 13:15 20,6 55 0 2,2 180 264 1016,5
53 Colina 06-05-2026 13:00 20,8 54 0 2,2 180 436 1016,2
52 Colina 06-05-2026 12:45 21,1 55 0 1,3 180 526 1016,1
51 Colina 06-05-2026 12:30 21,4 49 0 1,8 180 396 1016
50 Colina 06-05-2026 12:15 21,4 47 0 2,2 180 367 1015,8
49 Colina 06-05-2026 12:00 21,9 44 0 6,3 180 272 1015,6
48 Colina 06-05-2026 11:45 22,7 44 0 4 180 1093 1015,3
47 Colina 06-05-2026 11:30 22,3 44 0 2,7 180 896 1015,4
46 Colina 06-05-2026 11:15 21,1 47 0 1,8 180 529 1015,2
45 Colina 06-05-2026 11:00 20,6 50 0 2,2 180 751 1015,2
44 Colina 06-05-2026 10:45 20,3 53 0 2,7 180 779 1015,3
43 Colina 06-05-2026 10:30 19,6 55 0 2,7 180 540 1015,3
42 Colina 06-05-2026 10:15 18,2 60 0 0,9 180 343 1015,4
41 Colina 06-05-2026 10:00 16,8 66 0 0,4 180 422 1015,5
40 Colina 06-05-2026 09:45 16,6 67 0 0,9 180 410 1015,8
39 Colina 06-05-2026 09:30 16 70 0 1,3 180 459 1016,5
38 Colina 06-05-2026 09:15 15,9 71 0 0 180 485 1016,2
37 Colina 06-05-2026 09:00 13,5 81 0 0 180 359 1016,2
36 Colina 06-05-2026 08:45 12 87 0 0 180 276 1016,3
35 Colina 06-05-2026 08:30 10,1 91 0 0 180 206 1016,3
34 Colina 06-05-2026 08:15 8,1 91 0 0 180 137 1016,6
33 Colina 06-05-2026 08:00 6,7 90 0 0 180 25 1016,4
32 Colina 06-05-2026 07:45 6 90 0 0 325 12 1016,4
31 Colina 06-05-2026 07:30 5,7 89 0 0 324 7 1016,3
30 Colina 06-05-2026 07:15 5,8 88 0 0 324 0 1015,7
29 Colina 06-05-2026 07:00 6,6 88 0 0 324 0 1015,6
28 Colina 06-05-2026 06:45 6,2 87 0 0 10 0 1015,5
27 Colina 06-05-2026 06:30 6,8 87 0 0 10 0 1015
26 Colina 06-05-2026 06:15 7,4 89 0 0 180 0 1014,8
25 Colina 06-05-2026 06:00 7,1 89 0 0 180 0 1014,6
24 Colina 06-05-2026 05:45 7,1 88 0 0 180 0 1014,5
23 Colina 06-05-2026 05:30 7,3 88 0 0 180 0 1014,2
22 Colina 06-05-2026 05:15 7,3 88 0 0 180 0 1014,1
21 Colina 06-05-2026 05:00 6,9 88 0 0 180 0 1014
20 Colina 06-05-2026 04:45 6,8 88 0 0 180 0 1014
19 Colina 06-05-2026 04:30 6,4 87 0 0 180 0 1014,1
18 Colina 06-05-2026 04:15 6,4 86 0 0 180 0 1013,8
17 Colina 06-05-2026 04:00 6,7 85 0 0 180 0 1013,7
16 Colina 06-05-2026 03:45 7 84 0 0 180 0 1013,5
15 Colina 06-05-2026 03:30 7,6 83 0 0 180 0 1013,6
14 Colina 06-05-2026 03:15 8 84 0 0 180 0 1013,4
13 Colina 06-05-2026 03:00 8,5 84 0 0 180 0 1013,7
12 Colina 06-05-2026 02:45 8,8 82 0 0 180 0 1013,6
11 Colina 06-05-2026 02:30 9,6 82 0 0 180 0 1014,1
10 Colina 06-05-2026 02:15 10,1 84 0 0 180 0 1014,1
9 Colina 06-05-2026 02:00 10,1 82 0 0 180 0 1014,2
8 Colina 06-05-2026 01:45 10,4 84 0 0 180 0 1014,3
7 Colina 06-05-2026 01:30 10,4 84 0 0 180 0 1014,4
6 Colina 06-05-2026 01:15 10,7 83 0 0 180 0 1014,7
5 Colina 06-05-2026 01:00 10,6 84 0 0 180 0 1014,6
4 Colina 06-05-2026 00:45 10,5 82 0 0 180 0 1014,8
3 Colina 06-05-2026 00:30 10,7 82 0 0 180 0 1014,9
2 Colina 06-05-2026 00:15 10,9 81 0 0 180 0 1014,9
1 Colina 06-05-2026 00:00 11,2 79 0 0 180 0 1014,8